createdAt,value
2022-10-22T00:02:20.718Z,11.24
2022-10-22T00:07:23.015Z,11.24
2022-10-22T00:12:25.854Z,11.23
2022-10-22T00:17:30.064Z,11.22
2022-10-22T00:22:32.046Z,11.20
2022-10-22T00:27:33.841Z,11.17
2022-10-22T00:32:35.638Z,11.14
2022-10-22T00:37:37.665Z,11.10
2022-10-22T00:42:39.903Z,11.06
2022-10-22T00:47:49.135Z,11.02
2022-10-22T00:52:51.643Z,11.00
2022-10-22T00:57:55.963Z,10.96
2022-10-22T01:02:58.454Z,10.89
2022-10-22T01:08:00.461Z,10.81
2022-10-22T01:13:21.060Z,10.74
2022-10-22T01:19:05.930Z,10.65
2022-10-22T01:24:20.673Z,10.57
2022-10-22T01:29:30.496Z,10.51
2022-10-22T01:34:33.701Z,10.46
2022-10-22T01:39:38.691Z,10.41
2022-10-22T01:44:41.521Z,10.34
2022-10-22T01:50:08.596Z,10.31
2022-10-22T01:55:38.569Z,10.32
2022-10-22T02:00:47.519Z,10.37
2022-10-22T02:05:54.202Z,10.40
2022-10-22T02:10:58.655Z,10.41
2022-10-22T02:16:03.209Z,10.40
2022-10-22T02:26:54.677Z,10.30
2022-10-22T02:31:58.881Z,10.24
2022-10-22T02:37:03.578Z,10.21
2022-10-22T02:42:05.811Z,10.19
2022-10-22T02:47:07.749Z,10.18
2022-10-22T02:52:09.598Z,10.18
2022-10-22T03:02:26.631Z,10.23
2022-10-22T03:07:28.609Z,10.27
2022-10-22T03:12:30.726Z,10.32
2022-10-22T03:17:32.656Z,10.36
2022-10-22T03:22:36.625Z,10.40
2022-10-22T03:27:40.229Z,10.44
2022-10-22T03:32:42.280Z,10.43
2022-10-22T03:37:44.150Z,10.37
2022-10-22T03:42:46.183Z,10.32
2022-10-22T03:47:48.178Z,10.29
2022-10-22T03:52:50.178Z,10.28
2022-10-22T03:58:04.320Z,10.28
2022-10-22T04:03:10.789Z,10.26
2022-10-22T04:08:12.553Z,10.26
2022-10-22T04:13:14.448Z,10.27
2022-10-22T04:18:16.366Z,10.28
2022-10-22T04:23:18.217Z,10.29
2022-10-22T04:28:20.158Z,10.30
2022-10-22T04:33:22.136Z,10.30
2022-10-22T04:38:24.050Z,10.29
2022-10-22T04:43:26.055Z,10.25
2022-10-22T04:48:27.839Z,10.22
2022-10-22T04:53:29.693Z,10.18
2022-10-22T04:58:31.710Z,10.16
2022-10-22T05:03:33.665Z,10.16
2022-10-22T05:08:36.051Z,10.17
2022-10-22T05:13:38.469Z,10.16
2022-10-22T05:18:42.823Z,10.14
2022-10-22T05:23:46.295Z,10.12
2022-10-22T05:28:50.261Z,10.10
2022-10-22T05:33:52.249Z,10.07
2022-10-22T05:38:54.513Z,10.07
2022-10-22T05:44:00.526Z,10.09
2022-10-22T05:49:04.998Z,10.15
2022-10-22T05:54:29.289Z,10.23
2022-10-22T05:59:39.297Z,10.37
2022-10-22T06:04:41.050Z,10.55
2022-10-22T06:09:43.116Z,10.72
2022-10-22T06:14:45.239Z,10.92
2022-10-22T06:19:47.127Z,11.12
2022-10-22T06:24:58.500Z,11.31
2022-10-22T06:30:00.719Z,11.45
2022-10-22T06:35:02.588Z,11.57
2022-10-22T06:40:05.055Z,11.73
2022-10-22T06:45:08.099Z,11.93
2022-10-22T06:50:10.168Z,12.18
2022-10-22T06:55:32.321Z,12.41
2022-10-22T07:05:41.972Z,12.93
2022-10-22T07:10:43.780Z,13.16
2022-10-22T07:15:45.684Z,13.29
2022-10-22T07:20:50.751Z,13.38
2022-10-22T07:25:53.096Z,13.46
2022-10-22T07:30:55.098Z,13.52
2022-10-22T07:36:02.278Z,13.52
2022-10-22T07:41:04.883Z,13.53
2022-10-22T07:46:08.727Z,13.61
2022-10-22T07:51:10.679Z,13.76
2022-10-22T07:56:12.575Z,13.90
2022-10-22T08:01:14.599Z,14.11
2022-10-22T08:06:17.929Z,14.31
2022-10-22T08:11:19.825Z,14.43
2022-10-22T08:16:22.980Z,14.52
2022-10-22T08:21:25.199Z,14.53
2022-10-22T08:26:27.133Z,14.53
2022-10-22T08:31:29.310Z,14.51
2022-10-22T08:36:31.910Z,14.52
2022-10-22T08:41:46.610Z,14.54
2022-10-22T08:47:20.053Z,14.55
2022-10-22T08:52:49.302Z,14.60
2022-10-22T08:58:27.300Z,14.66
2022-10-22T09:04:28.405Z,14.70
2022-10-22T09:09:35.972Z,14.78
2022-10-22T09:14:46.868Z,14.81
2022-10-22T09:19:49.050Z,14.84
2022-10-22T09:25:08.298Z,14.81
2022-10-22T09:30:27.056Z,14.78
2022-10-22T09:35:33.403Z,14.80
2022-10-22T09:40:48.677Z,14.91
2022-10-22T09:45:58.275Z,15.04
2022-10-22T09:51:18.225Z,15.10
2022-10-22T09:56:35.502Z,15.13
2022-10-22T10:01:40.968Z,15.16
2022-10-22T10:06:44.562Z,15.19
2022-10-22T10:12:03.668Z,15.18
2022-10-22T10:17:18.581Z,15.18
2022-10-22T10:22:45.011Z,15.21
2022-10-22T10:27:55.829Z,15.30
2022-10-22T10:33:39.136Z,15.42
2022-10-22T10:39:20.314Z,15.49
2022-10-22T10:44:48.035Z,15.54
2022-10-22T10:49:55.029Z,15.53
2022-10-22T10:55:25.362Z,15.47
2022-10-22T11:00:36.033Z,15.48
2022-10-22T11:05:53.297Z,15.45
2022-10-22T11:10:58.828Z,15.46
2022-10-22T11:16:26.666Z,15.41
2022-10-22T11:21:55.978Z,15.31
2022-10-22T11:27:07.013Z,15.29
2022-10-22T11:32:18.870Z,15.23
2022-10-22T11:37:24.822Z,15.20
2022-10-22T11:42:57.312Z,15.18
2022-10-22T11:48:12.652Z,15.14
2022-10-22T11:53:14.441Z,15.04
2022-10-22T11:58:28.477Z,14.94
2022-10-22T12:03:33.300Z,14.89
2022-10-22T12:08:46.889Z,14.77
2022-10-22T12:14:01.046Z,14.54
2022-10-22T12:19:12.928Z,14.22
2022-10-22T12:24:19.313Z,14.03
2022-10-22T12:29:30.275Z,13.93
2022-10-22T12:34:51.414Z,13.86
2022-10-22T12:39:53.182Z,13.81
2022-10-22T12:44:56.558Z,13.81
2022-10-22T12:49:58.966Z,13.83
2022-10-22T12:55:01.028Z,13.82
2022-10-22T13:00:04.187Z,13.82
2022-10-22T13:05:30.979Z,13.72
2022-10-22T13:10:35.333Z,13.62
2022-10-22T13:15:39.572Z,13.56
2022-10-22T13:21:01.890Z,13.49
2022-10-22T13:26:14.096Z,13.41
2022-10-22T13:31:19.557Z,13.39
2022-10-22T13:36:22.690Z,13.35
2022-10-22T13:41:32.203Z,13.27
2022-10-22T13:46:40.598Z,13.14
2022-10-22T13:51:43.229Z,13.03
2022-10-22T13:56:45.782Z,12.92
2022-10-22T14:01:48.167Z,12.86
2022-10-22T14:06:50.329Z,12.77
2022-10-22T14:11:52.266Z,12.67
2022-10-22T14:16:54.464Z,12.60
2022-10-22T14:21:56.540Z,12.55
2022-10-22T14:26:58.965Z,12.52
2022-10-22T14:32:02.417Z,12.48
2022-10-22T14:37:04.209Z,12.46
2022-10-22T14:42:06.019Z,12.44
2022-10-22T14:47:08.242Z,12.43
2022-10-22T14:52:30.265Z,12.39
2022-10-22T14:57:45.304Z,12.34
2022-10-22T15:02:48.116Z,12.29
2022-10-22T15:07:49.959Z,12.23
2022-10-22T15:12:52.190Z,12.20
2022-10-22T15:17:54.268Z,12.15
2022-10-22T15:22:56.789Z,12.12
2022-10-22T15:28:04.778Z,12.09
2022-10-22T15:33:11.705Z,12.08
2022-10-22T15:38:14.076Z,12.08
2022-10-22T15:43:15.894Z,12.07
2022-10-22T15:48:21.537Z,12.07
2022-10-22T15:53:23.414Z,12.07
2022-10-22T15:58:25.393Z,12.05
2022-10-22T16:03:27.413Z,12.04
2022-10-22T16:08:29.864Z,12.00
2022-10-22T16:13:31.927Z,12.01
2022-10-22T16:18:34.037Z,12.01
2022-10-22T16:23:36.521Z,11.99
2022-10-22T16:28:38.953Z,11.97
2022-10-22T16:33:47.895Z,11.93
2022-10-22T16:38:52.086Z,11.89
2022-10-22T16:43:55.495Z,11.87
2022-10-22T16:48:57.901Z,11.85
2022-10-22T16:53:59.929Z,11.85
2022-10-22T16:59:01.949Z,11.85
2022-10-22T17:04:04.151Z,11.85
2022-10-22T17:09:06.315Z,11.85
2022-10-22T17:14:08.603Z,11.85
2022-10-22T17:19:15.358Z,11.86
2022-10-22T17:24:18.390Z,11.85
2022-10-22T17:29:29.969Z,11.83
2022-10-22T17:34:33.400Z,11.81
2022-10-22T17:39:36.592Z,11.79
2022-10-22T17:44:38.507Z,11.79
2022-10-22T17:49:41.233Z,11.79
2022-10-22T17:54:43.593Z,11.77
2022-10-22T17:59:45.499Z,11.76
2022-10-22T18:04:52.231Z,11.77
2022-10-22T18:09:54.170Z,11.79
2022-10-22T18:15:06.360Z,11.80
2022-10-22T18:20:21.693Z,11.82
2022-10-22T18:25:24.092Z,11.83
2022-10-22T18:30:26.225Z,11.87
2022-10-22T18:35:32.207Z,11.91
2022-10-22T18:40:36.014Z,11.88
2022-10-22T18:45:45.998Z,11.87
2022-10-22T18:50:47.825Z,11.81
2022-10-22T18:55:49.617Z,11.76
2022-10-22T19:00:52.038Z,11.76
2022-10-22T19:06:07.484Z,11.81
2022-10-22T19:11:15.427Z,11.89
2022-10-22T19:16:24.106Z,11.96
2022-10-22T19:21:26.361Z,11.97
2022-10-22T19:26:30.538Z,11.92
2022-10-22T19:31:32.672Z,11.85
2022-10-22T19:36:55.238Z,11.84
2022-10-22T19:42:12.406Z,11.87
2022-10-22T19:47:15.690Z,11.90
2022-10-22T19:52:17.666Z,11.95
2022-10-22T19:57:19.567Z,12.01
2022-10-22T20:02:23.162Z,12.08
2022-10-22T20:07:25.238Z,12.15
2022-10-22T20:12:27.133Z,12.18
2022-10-22T20:17:29.070Z,12.24
2022-10-22T20:22:31.266Z,12.29
2022-10-22T20:27:33.044Z,12.31
2022-10-22T20:32:39.288Z,12.34
2022-10-22T20:37:41.710Z,12.36
2022-10-22T20:42:44.241Z,12.38
2022-10-22T20:47:51.622Z,12.41
2022-10-22T20:53:00.519Z,12.43
2022-10-22T20:58:02.441Z,12.43
2022-10-22T21:03:04.734Z,12.44
2022-10-22T21:08:06.940Z,12.44
2022-10-22T21:13:14.068Z,12.44
2022-10-22T21:18:16.397Z,12.45
2022-10-22T21:23:18.286Z,12.48
2022-10-22T21:28:20.235Z,12.50
2022-10-22T21:33:22.157Z,12.54
2022-10-22T21:38:25.382Z,12.51
2022-10-22T21:43:27.322Z,12.45
2022-10-22T21:48:29.207Z,12.35
2022-10-22T21:53:31.009Z,12.19
2022-10-22T21:58:36.310Z,12.03
2022-10-22T22:03:38.491Z,11.87
2022-10-22T22:08:40.576Z,11.76
2022-10-22T22:13:42.994Z,11.65
2022-10-22T22:18:44.827Z,11.59
2022-10-22T22:23:49.124Z,11.57
2022-10-22T22:28:51.185Z,11.61
2022-10-22T22:34:02.344Z,11.67
2022-10-22T22:39:06.797Z,11.72
2022-10-22T22:44:08.717Z,11.79
2022-10-22T22:49:12.991Z,11.87
2022-10-22T22:54:14.862Z,11.96
2022-10-22T22:59:16.776Z,12.01
2022-10-22T23:04:23.624Z,12.04
2022-10-22T23:09:28.428Z,12.05
2022-10-22T23:14:33.144Z,12.03
2022-10-22T23:19:35.155Z,12.02
2022-10-22T23:24:38.174Z,12.07
2022-10-22T23:29:40.136Z,12.14
2022-10-22T23:34:42.370Z,12.20
2022-10-22T23:39:45.246Z,12.25
2022-10-22T23:50:23.621Z,12.26
2022-10-22T23:55:25.694Z,12.21
